sensor_id;sensor_type;location;lat;lon;timestamp;temperature;humidity
15003;DHT22;7597;53.590;10.020;2022-08-18T00:00:13;18.80;1.00
15003;DHT22;7597;53.590;10.020;2022-08-18T00:02:40;18.80;1.00
15003;DHT22;7597;53.590;10.020;2022-08-18T00:05:07;18.90;1.00
15003;DHT22;7597;53.590;10.020;2022-08-18T00:07:33;18.90;1.00
15003;DHT22;7597;53.590;10.020;2022-08-18T00:10:00;18.90;1.00
15003;DHT22;7597;53.590;10.020;2022-08-18T00:12:32;18.90;1.00
15003;DHT22;7597;53.590;10.020;2022-08-18T00:14:57;19.00;1.00
15003;DHT22;7597;53.590;10.020;2022-08-18T00:17:24;19.00;1.00
15003;DHT22;7597;53.590;10.020;2022-08-18T00:19:50;19.10;1.00
15003;DHT22;7597;53.590;10.020;2022-08-18T00:22:18;19.10;1.00
15003;DHT22;7597;53.590;10.020;2022-08-18T00:24:44;19.20;1.00
15003;DHT22;7597;53.590;10.020;2022-08-18T00:27:10;19.20;1.00
15003;DHT22;7597;53.590;10.020;2022-08-18T00:29:37;19.20;1.00
15003;DHT22;7597;53.590;10.020;2022-08-18T00:32:12;19.20;1.00
15003;DHT22;7597;53.590;10.020;2022-08-18T00:34:37;19.20;1.00
15003;DHT22;7597;53.590;10.020;2022-08-18T00:37:04;18.60;1.00
15003;DHT22;7597;53.590;10.020;2022-08-18T00:39:31;19.20;1.00
15003;DHT22;7597;53.590;10.020;2022-08-18T00:41:57;19.10;1.00
15003;DHT22;7597;53.590;10.020;2022-08-18T00:44:24;19.10;1.00
15003;DHT22;7597;53.590;10.020;2022-08-18T00:46:51;19.10;1.00
15003;DHT22;7597;53.590;10.020;2022-08-18T00:49:17;19.10;1.00
15003;DHT22;7597;53.590;10.020;2022-08-18T00:51:45;19.10;1.00
15003;DHT22;7597;53.590;10.020;2022-08-18T00:54:12;19.10;1.00
15003;DHT22;7597;53.590;10.020;2022-08-18T00:56:49;19.10;1.00
15003;DHT22;7597;53.590;10.020;2022-08-18T00:59:06;19.10;1.00
15003;DHT22;7597;53.590;10.020;2022-08-18T01:01:31;19.10;1.00
15003;DHT22;7597;53.590;10.020;2022-08-18T01:04:14;19.00;1.00
15003;DHT22;7597;53.590;10.020;2022-08-18T01:06:43;19.00;1.00
15003;DHT22;7597;53.590;10.020;2022-08-18T01:09:09;19.00;1.00
15003;DHT22;7597;53.590;10.020;2022-08-18T01:11:36;19.00;1.00
15003;DHT22;7597;53.590;10.020;2022-08-18T01:14:05;18.90;1.00
15003;DHT22;7597;53.590;10.020;2022-08-18T01:16:31;18.90;1.00
15003;DHT22;7597;53.590;10.020;2022-08-18T01:19:03;18.90;1.00
15003;DHT22;7597;53.590;10.020;2022-08-18T01:21:37;18.80;1.00
15003;DHT22;7597;53.590;10.020;2022-08-18T01:24:08;18.80;1.00
15003;DHT22;7597;53.590;10.020;2022-08-18T01:26:37;18.70;1.00
15003;DHT22;7597;53.590;10.020;2022-08-18T01:29:04;18.70;1.00
15003;DHT22;7597;53.590;10.020;2022-08-18T01:31:32;18.70;1.00
15003;DHT22;7597;53.590;10.020;2022-08-18T01:33:58;18.70;1.00
15003;DHT22;7597;53.590;10.020;2022-08-18T01:36:25;18.60;1.00
15003;DHT22;7597;53.590;10.020;2022-08-18T01:38:52;18.60;1.00
15003;DHT22;7597;53.590;10.020;2022-08-18T01:41:20;18.60;1.00
15003;DHT22;7597;53.590;10.020;2022-08-18T01:43:46;18.50;1.00
15003;DHT22;7597;53.590;10.020;2022-08-18T01:46:12;18.60;1.00
15003;DHT22;7597;53.590;10.020;2022-08-18T01:48:40;18.50;1.00
15003;DHT22;7597;53.590;10.020;2022-08-18T01:51:07;18.40;1.00
15003;DHT22;7597;53.590;10.020;2022-08-18T01:53:33;18.40;1.00
15003;DHT22;7597;53.590;10.020;2022-08-18T01:56:00;18.40;1.00
15003;DHT22;7597;53.590;10.020;2022-08-18T01:58:27;18.40;1.00
15003;DHT22;7597;53.590;10.020;2022-08-18T02:00:54;18.40;1.00
15003;DHT22;7597;53.590;10.020;2022-08-18T02:03:21;18.40;1.00
15003;DHT22;7597;53.590;10.020;2022-08-18T02:05:48;18.40;1.00
15003;DHT22;7597;53.590;10.020;2022-08-18T02:08:15;18.40;1.00
15003;DHT22;7597;53.590;10.020;2022-08-18T02:10:41;18.30;1.00
15003;DHT22;7597;53.590;10.020;2022-08-18T02:13:08;18.30;1.00
15003;DHT22;7597;53.590;10.020;2022-08-18T02:15:35;18.10;1.00
15003;DHT22;7597;53.590;10.020;2022-08-18T02:18:02;18.10;1.00
15003;DHT22;7597;53.590;10.020;2022-08-18T02:20:29;18.10;1.00
15003;DHT22;7597;53.590;10.020;2022-08-18T02:22:56;18.10;1.00
15003;DHT22;7597;53.590;10.020;2022-08-18T02:25:23;18.10;1.00
15003;DHT22;7597;53.590;10.020;2022-08-18T02:27:49;18.10;1.00
15003;DHT22;7597;53.590;10.020;2022-08-18T02:30:16;18.10;1.00
15003;DHT22;7597;53.590;10.020;2022-08-18T02:32:45;18.10;1.00
15003;DHT22;7597;53.590;10.020;2022-08-18T02:35:13;18.10;1.00
15003;DHT22;7597;53.590;10.020;2022-08-18T02:37:40;18.20;1.00
15003;DHT22;7597;53.590;10.020;2022-08-18T02:40:08;18.20;1.00
15003;DHT22;7597;53.590;10.020;2022-08-18T02:42:34;18.10;1.00
15003;DHT22;7597;53.590;10.020;2022-08-18T02:45:01;18.10;1.00
15003;DHT22;7597;53.590;10.020;2022-08-18T02:47:28;18.10;1.00
15003;DHT22;7597;53.590;10.020;2022-08-18T02:49:55;18.10;1.00
15003;DHT22;7597;53.590;10.020;2022-08-18T02:52:21;18.20;1.00
15003;DHT22;7597;53.590;10.020;2022-08-18T02:54:48;18.20;1.00
15003;DHT22;7597;53.590;10.020;2022-08-18T02:57:15;18.30;1.00
15003;DHT22;7597;53.590;10.020;2022-08-18T02:59:41;18.30;1.00
15003;DHT22;7597;53.590;10.020;2022-08-18T03:02:08;18.30;1.00
15003;DHT22;7597;53.590;10.020;2022-08-18T03:04:35;18.30;1.00
15003;DHT22;7597;53.590;10.020;2022-08-18T03:07:03;18.30;1.00
15003;DHT22;7597;53.590;10.020;2022-08-18T03:09:28;18.20;1.00
15003;DHT22;7597;53.590;10.020;2022-08-18T03:11:54;18.20;1.00
15003;DHT22;7597;53.590;10.020;2022-08-18T03:14:21;18.20;1.00
15003;DHT22;7597;53.590;10.020;2022-08-18T03:16:48;18.20;1.00
15003;DHT22;7597;53.590;10.020;2022-08-18T03:19:15;18.20;1.00
15003;DHT22;7597;53.590;10.020;2022-08-18T03:21:43;18.20;1.00
15003;DHT22;7597;53.590;10.020;2022-08-18T03:24:09;18.20;1.00
15003;DHT22;7597;53.590;10.020;2022-08-18T03:26:38;18.20;1.00
15003;DHT22;7597;53.590;10.020;2022-08-18T03:29:02;18.10;1.00
15003;DHT22;7597;53.590;10.020;2022-08-18T03:31:29;18.10;1.00
15003;DHT22;7597;53.590;10.020;2022-08-18T03:33:56;18.00;1.00
15003;DHT22;7597;53.590;10.020;2022-08-18T03:36:23;18.00;1.00
15003;DHT22;7597;53.590;10.020;2022-08-18T03:38:49;18.00;1.00
15003;DHT22;7597;53.590;10.020;2022-08-18T03:41:16;17.90;1.00
15003;DHT22;7597;53.590;10.020;2022-08-18T03:43:42;17.90;1.00
15003;DHT22;7597;53.590;10.020;2022-08-18T03:46:09;17.90;1.00
15003;DHT22;7597;53.590;10.020;2022-08-18T03:48:35;17.90;1.00
15003;DHT22;7597;53.590;10.020;2022-08-18T03:51:03;17.90;1.00
15003;DHT22;7597;53.590;10.020;2022-08-18T03:53:29;17.90;1.00
15003;DHT22;7597;53.590;10.020;2022-08-18T03:55:56;17.90;1.00
15003;DHT22;7597;53.590;10.020;2022-08-18T03:58:23;17.90;1.00
15003;DHT22;7597;53.590;10.020;2022-08-18T04:00:49;17.90;1.00
15003;DHT22;7597;53.590;10.020;2022-08-18T04:03:16;17.90;1.00
15003;DHT22;7597;53.590;10.020;2022-08-18T04:05:43;17.90;1.00
15003;DHT22;7597;53.590;10.020;2022-08-18T04:08:09;17.90;1.00
15003;DHT22;7597;53.590;10.020;2022-08-18T04:10:36;17.90;1.00
15003;DHT22;7597;53.590;10.020;2022-08-18T04:13:03;18.00;1.00
15003;DHT22;7597;53.590;10.020;2022-08-18T04:15:31;18.00;1.00
15003;DHT22;7597;53.590;10.020;2022-08-18T04:17:58;18.10;1.00
15003;DHT22;7597;53.590;10.020;2022-08-18T04:20:24;18.00;1.00
15003;DHT22;7597;53.590;10.020;2022-08-18T04:22:51;18.10;1.00
15003;DHT22;7597;53.590;10.020;2022-08-18T04:25:18;18.20;1.00
15003;DHT22;7597;53.590;10.020;2022-08-18T04:27:44;18.20;1.00
15003;DHT22;7597;53.590;10.020;2022-08-18T04:30:11;18.30;1.00
15003;DHT22;7597;53.590;10.020;2022-08-18T04:32:38;18.50;1.00
15003;DHT22;7597;53.590;10.020;2022-08-18T04:35:05;18.60;1.00
15003;DHT22;7597;53.590;10.020;2022-08-18T04:37:32;18.60;1.00
15003;DHT22;7597;53.590;10.020;2022-08-18T04:39:58;18.70;1.00
15003;DHT22;7597;53.590;10.020;2022-08-18T04:42:25;18.80;1.00
15003;DHT22;7597;53.590;10.020;2022-08-18T04:44:52;18.80;1.00
15003;DHT22;7597;53.590;10.020;2022-08-18T04:47:18;18.80;1.00
15003;DHT22;7597;53.590;10.020;2022-08-18T04:49:45;18.90;1.00
15003;DHT22;7597;53.590;10.020;2022-08-18T04:52:12;19.00;1.00
15003;DHT22;7597;53.590;10.020;2022-08-18T04:54:44;19.00;1.00
15003;DHT22;7597;53.590;10.020;2022-08-18T04:57:14;19.00;1.00
15003;DHT22;7597;53.590;10.020;2022-08-18T04:59:41;19.10;1.00
15003;DHT22;7597;53.590;10.020;2022-08-18T05:02:07;19.10;1.00
15003;DHT22;7597;53.590;10.020;2022-08-18T05:04:34;19.20;1.00
15003;DHT22;7597;53.590;10.020;2022-08-18T05:07:01;19.30;1.00
15003;DHT22;7597;53.590;10.020;2022-08-18T05:09:27;19.30;1.00
15003;DHT22;7597;53.590;10.020;2022-08-18T05:11:54;19.40;1.00
15003;DHT22;7597;53.590;10.020;2022-08-18T05:14:21;19.50;1.00
15003;DHT22;7597;53.590;10.020;2022-08-18T05:16:47;19.60;1.00
15003;DHT22;7597;53.590;10.020;2022-08-18T05:19:15;19.60;1.00
15003;DHT22;7597;53.590;10.020;2022-08-18T05:21:41;19.60;1.00
15003;DHT22;7597;53.590;10.020;2022-08-18T05:24:08;19.70;1.00
15003;DHT22;7597;53.590;10.020;2022-08-18T05:26:35;19.60;1.00
15003;DHT22;7597;53.590;10.020;2022-08-18T05:29:01;19.70;1.00
15003;DHT22;7597;53.590;10.020;2022-08-18T05:31:28;19.80;1.00
15003;DHT22;7597;53.590;10.020;2022-08-18T05:33:55;19.90;1.00
15003;DHT22;7597;53.590;10.020;2022-08-18T05:39:20;19.50;1.00
15003;DHT22;7597;53.590;10.020;2022-08-18T05:41:45;20.10;1.00
15003;DHT22;7597;53.590;10.020;2022-08-18T05:44:11;20.10;1.00
15003;DHT22;7597;53.590;10.020;2022-08-18T05:46:48;20.20;1.00
15003;DHT22;7597;53.590;10.020;2022-08-18T05:49:14;20.30;1.00
15003;DHT22;7597;53.590;10.020;2022-08-18T05:51:42;20.40;1.00
15003;DHT22;7597;53.590;10.020;2022-08-18T05:54:08;20.30;1.00
15003;DHT22;7597;53.590;10.020;2022-08-18T05:56:40;20.30;1.00
15003;DHT22;7597;53.590;10.020;2022-08-18T05:59:26;20.40;1.00
15003;DHT22;7597;53.590;10.020;2022-08-18T06:01:58;20.40;1.00
15003;DHT22;7597;53.590;10.020;2022-08-18T06:04:29;20.50;1.00
15003;DHT22;7597;53.590;10.020;2022-08-18T06:06:52;20.50;1.00
15003;DHT22;7597;53.590;10.020;2022-08-18T06:09:21;20.60;1.00
15003;DHT22;7597;53.590;10.020;2022-08-18T06:11:46;20.60;1.00
15003;DHT22;7597;53.590;10.020;2022-08-18T06:14:14;20.90;1.00
15003;DHT22;7597;53.590;10.020;2022-08-18T06:16:47;20.90;1.00
15003;DHT22;7597;53.590;10.020;2022-08-18T06:19:37;21.00;1.00
15003;DHT22;7597;53.590;10.020;2022-08-18T06:22:35;21.20;1.00
15003;DHT22;7597;53.590;10.020;2022-08-18T06:25:05;21.40;1.00
15003;DHT22;7597;53.590;10.020;2022-08-18T06:27:33;21.50;1.00
15003;DHT22;7597;53.590;10.020;2022-08-18T06:30:06;21.60;1.00
15003;DHT22;7597;53.590;10.020;2022-08-18T06:32:41;21.70;1.00
15003;DHT22;7597;53.590;10.020;2022-08-18T06:39:23;22.20;1.00
15003;DHT22;7597;53.590;10.020;2022-08-18T06:41:12;22.60;1.00
15003;DHT22;7597;53.590;10.020;2022-08-18T06:43:38;23.00;1.00
15003;DHT22;7597;53.590;10.020;2022-08-18T06:46:06;23.30;1.00
15003;DHT22;7597;53.590;10.020;2022-08-18T06:48:36;23.50;1.00
15003;DHT22;7597;53.590;10.020;2022-08-18T06:51:00;23.80;1.00
15003;DHT22;7597;53.590;10.020;2022-08-18T06:56:13;23.50;1.00
15003;DHT22;7597;53.590;10.020;2022-08-18T06:58:35;23.30;1.00
15003;DHT22;7597;53.590;10.020;2022-08-18T07:01:05;23.10;1.00
15003;DHT22;7597;53.590;10.020;2022-08-18T07:03:45;23.20;1.00
15003;DHT22;7597;53.590;10.020;2022-08-18T07:06:27;23.80;1.00
15003;DHT22;7597;53.590;10.020;2022-08-18T07:08:54;23.70;1.00
15003;DHT22;7597;53.590;10.020;2022-08-18T07:11:27;23.40;1.00
15003;DHT22;7597;53.590;10.020;2022-08-18T07:13:57;22.60;1.00
15003;DHT22;7597;53.590;10.020;2022-08-18T07:16:28;21.90;1.00
15003;DHT22;7597;53.590;10.020;2022-08-18T07:18:50;21.40;1.00
15003;DHT22;7597;53.590;10.020;2022-08-18T07:21:24;21.00;1.00
15003;DHT22;7597;53.590;10.020;2022-08-18T07:23:57;20.80;1.00
15003;DHT22;7597;53.590;10.020;2022-08-18T07:26:16;20.70;1.00
15003;DHT22;7597;53.590;10.020;2022-08-18T07:28:43;20.70;1.00
15003;DHT22;7597;53.590;10.020;2022-08-18T07:34:15;20.60;1.00
15003;DHT22;7597;53.590;10.020;2022-08-18T07:36:43;20.60;1.00
15003;DHT22;7597;53.590;10.020;2022-08-18T07:39:12;20.30;1.00
15003;DHT22;7597;53.590;10.020;2022-08-18T07:41:46;20.30;1.00
15003;DHT22;7597;53.590;10.020;2022-08-18T07:44:19;20.30;1.00
15003;DHT22;7597;53.590;10.020;2022-08-18T07:47:02;20.20;1.00
15003;DHT22;7597;53.590;10.020;2022-08-18T07:49:32;20.10;1.00
15003;DHT22;7597;53.590;10.020;2022-08-18T07:51:56;20.10;1.00
15003;DHT22;7597;53.590;10.020;2022-08-18T07:54:32;20.00;1.00
15003;DHT22;7597;53.590;10.020;2022-08-18T07:57:18;20.10;1.00
15003;DHT22;7597;53.590;10.020;2022-08-18T07:59:46;20.10;1.00
15003;DHT22;7597;53.590;10.020;2022-08-18T08:02:29;20.20;1.00
15003;DHT22;7597;53.590;10.020;2022-08-18T08:07:28;20.10;1.00
15003;DHT22;7597;53.590;10.020;2022-08-18T08:10:18;20.00;1.00
15003;DHT22;7597;53.590;10.020;2022-08-18T08:12:43;20.00;1.00
15003;DHT22;7597;53.590;10.020;2022-08-18T08:15:38;19.90;1.00
15003;DHT22;7597;53.590;10.020;2022-08-18T08:18:36;19.90;1.00
15003;DHT22;7597;53.590;10.020;2022-08-18T08:21:07;20.00;1.00
15003;DHT22;7597;53.590;10.020;2022-08-18T08:23:36;20.00;1.00
15003;DHT22;7597;53.590;10.020;2022-08-18T08:28:55;20.00;1.00
15003;DHT22;7597;53.590;10.020;2022-08-18T08:31:36;19.90;1.00
15003;DHT22;7597;53.590;10.020;2022-08-18T08:34:19;20.00;1.00
15003;DHT22;7597;53.590;10.020;2022-08-18T08:36:44;20.00;1.00
15003;DHT22;7597;53.590;10.020;2022-08-18T08:39:17;20.20;1.00
15003;DHT22;7597;53.590;10.020;2022-08-18T08:41:43;20.30;1.00
15003;DHT22;7597;53.590;10.020;2022-08-18T08:44:12;20.50;1.00
15003;DHT22;7597;53.590;10.020;2022-08-18T08:46:43;20.80;1.00
15003;DHT22;7597;53.590;10.020;2022-08-18T08:49:16;21.00;1.00
15003;DHT22;7597;53.590;10.020;2022-08-18T08:51:40;21.20;1.00
15003;DHT22;7597;53.590;10.020;2022-08-18T08:54:08;21.30;1.00
15003;DHT22;7597;53.590;10.020;2022-08-18T08:56:34;21.40;1.00
15003;DHT22;7597;53.590;10.020;2022-08-18T08:59:07;21.50;1.00
15003;DHT22;7597;53.590;10.020;2022-08-18T09:01:40;21.60;1.00
15003;DHT22;7597;53.590;10.020;2022-08-18T09:07:05;21.80;1.00
15003;DHT22;7597;53.590;10.020;2022-08-18T09:09:38;22.80;1.00
15003;DHT22;7597;53.590;10.020;2022-08-18T09:12:04;22.80;1.00
15003;DHT22;7597;53.590;10.020;2022-08-18T09:17:38;23.10;1.00
15003;DHT22;7597;53.590;10.020;2022-08-18T09:20:08;23.10;1.00
15003;DHT22;7597;53.590;10.020;2022-08-18T09:25:09;22.80;1.00
15003;DHT22;7597;53.590;10.020;2022-08-18T09:27:40;23.00;1.00
15003;DHT22;7597;53.590;10.020;2022-08-18T09:30:06;23.20;1.00
15003;DHT22;7597;53.590;10.020;2022-08-18T09:32:35;23.70;1.00
15003;DHT22;7597;53.590;10.020;2022-08-18T09:35:05;23.70;1.00
15003;DHT22;7597;53.590;10.020;2022-08-18T09:37:45;23.60;1.00
15003;DHT22;7597;53.590;10.020;2022-08-18T09:40:10;23.60;1.00
15003;DHT22;7597;53.590;10.020;2022-08-18T09:42:47;23.60;1.00
15003;DHT22;7597;53.590;10.020;2022-08-18T09:47:55;23.40;1.00
15003;DHT22;7597;53.590;10.020;2022-08-18T09:50:35;23.50;1.00
15003;DHT22;7597;53.590;10.020;2022-08-18T09:53:31;23.60;1.00
15003;DHT22;7597;53.590;10.020;2022-08-18T09:55:50;23.60;1.00
15003;DHT22;7597;53.590;10.020;2022-08-18T09:58:13;23.70;1.00
15003;DHT22;7597;53.590;10.020;2022-08-18T10:00:38;24.00;1.00
15003;DHT22;7597;53.590;10.020;2022-08-18T10:03:17;24.20;1.00
15003;DHT22;7597;53.590;10.020;2022-08-18T10:05:54;24.40;1.00
15003;DHT22;7597;53.590;10.020;2022-08-18T10:08:26;24.40;1.00
15003;DHT22;7597;53.590;10.020;2022-08-18T10:10:57;24.60;1.00
15003;DHT22;7597;53.590;10.020;2022-08-18T10:13:24;24.70;1.00
15003;DHT22;7597;53.590;10.020;2022-08-18T10:24:15;25.10;1.00
15003;DHT22;7597;53.590;10.020;2022-08-18T10:26:57;25.40;1.00
15003;DHT22;7597;53.590;10.020;2022-08-18T10:29:42;26.10;1.00
15003;DHT22;7597;53.590;10.020;2022-08-18T10:32:22;26.10;1.00
15003;DHT22;7597;53.590;10.020;2022-08-18T10:34:50;27.10;1.00
15003;DHT22;7597;53.590;10.020;2022-08-18T10:37:20;28.10;1.00
15003;DHT22;7597;53.590;10.020;2022-08-18T10:39:49;29.00;1.00
15003;DHT22;7597;53.590;10.020;2022-08-18T10:42:25;28.70;1.00
15003;DHT22;7597;53.590;10.020;2022-08-18T10:44:59;27.90;1.00
15003;DHT22;7597;53.590;10.020;2022-08-18T10:47:23;27.20;1.00
15003;DHT22;7597;53.590;10.020;2022-08-18T10:49:48;27.10;1.00
15003;DHT22;7597;53.590;10.020;2022-08-18T10:52:24;26.70;1.00
15003;DHT22;7597;53.590;10.020;2022-08-18T10:54:56;26.20;1.00
15003;DHT22;7597;53.590;10.020;2022-08-18T10:57:21;25.40;1.00
15003;DHT22;7597;53.590;10.020;2022-08-18T10:59:56;25.40;1.00
15003;DHT22;7597;53.590;10.020;2022-08-18T11:02:33;25.20;1.00
15003;DHT22;7597;53.590;10.020;2022-08-18T11:04:52;25.20;1.00
15003;DHT22;7597;53.590;10.020;2022-08-18T11:07:21;25.20;1.00
15003;DHT22;7597;53.590;10.020;2022-08-18T11:09:47;25.50;1.00
15003;DHT22;7597;53.590;10.020;2022-08-18T11:12:13;26.60;1.00
15003;DHT22;7597;53.590;10.020;2022-08-18T11:15:00;26.90;1.00
15003;DHT22;7597;53.590;10.020;2022-08-18T11:17:50;27.00;1.00
15003;DHT22;7597;53.590;10.020;2022-08-18T11:20:16;27.30;1.00
15003;DHT22;7597;53.590;10.020;2022-08-18T11:22:49;27.30;1.00
15003;DHT22;7597;53.590;10.020;2022-08-18T11:25:24;27.20;1.00
15003;DHT22;7597;53.590;10.020;2022-08-18T11:27:48;27.70;1.00
15003;DHT22;7597;53.590;10.020;2022-08-18T11:30:15;28.00;1.00
15003;DHT22;7597;53.590;10.020;2022-08-18T11:32:41;28.80;1.00
15003;DHT22;7597;53.590;10.020;2022-08-18T11:35:13;29.90;1.00
15003;DHT22;7597;53.590;10.020;2022-08-18T11:37:46;30.90;1.00
15003;DHT22;7597;53.590;10.020;2022-08-18T11:40:37;31.00;1.00
15003;DHT22;7597;53.590;10.020;2022-08-18T11:43:13;31.80;1.00
15003;DHT22;7597;53.590;10.020;2022-08-18T11:45:54;32.30;1.00
15003;DHT22;7597;53.590;10.020;2022-08-18T11:48:22;33.10;1.00
15003;DHT22;7597;53.590;10.020;2022-08-18T11:50:48;33.40;1.00
15003;DHT22;7597;53.590;10.020;2022-08-18T11:53:15;32.20;1.00
15003;DHT22;7597;53.590;10.020;2022-08-18T11:55:40;31.50;1.00
15003;DHT22;7597;53.590;10.020;2022-08-18T11:58:07;31.70;1.00
15003;DHT22;7597;53.590;10.020;2022-08-18T12:00:40;32.00;1.00
15003;DHT22;7597;53.590;10.020;2022-08-18T12:03:19;32.30;1.00
15003;DHT22;7597;53.590;10.020;2022-08-18T12:05:50;32.30;1.00
15003;DHT22;7597;53.590;10.020;2022-08-18T12:08:18;31.50;1.00
15003;DHT22;7597;53.590;10.020;2022-08-18T12:10:44;31.50;1.00
15003;DHT22;7597;53.590;10.020;2022-08-18T12:13:19;31.10;1.00
15003;DHT22;7597;53.590;10.020;2022-08-18T12:15:38;31.00;1.00
15003;DHT22;7597;53.590;10.020;2022-08-18T12:18:05;30.90;1.00
15003;DHT22;7597;53.590;10.020;2022-08-18T12:20:31;30.60;1.00
15003;DHT22;7597;53.590;10.020;2022-08-18T12:22:58;30.10;1.00
15003;DHT22;7597;53.590;10.020;2022-08-18T12:25:25;29.80;1.00
15003;DHT22;7597;53.590;10.020;2022-08-18T12:27:52;29.80;1.00
15003;DHT22;7597;53.590;10.020;2022-08-18T12:30:18;29.70;1.00
15003;DHT22;7597;53.590;10.020;2022-08-18T12:32:46;30.80;1.00
15003;DHT22;7597;53.590;10.020;2022-08-18T12:35:12;30.80;1.00
15003;DHT22;7597;53.590;10.020;2022-08-18T12:37:41;30.80;1.00
15003;DHT22;7597;53.590;10.020;2022-08-18T12:40:07;30.40;1.00
15003;DHT22;7597;53.590;10.020;2022-08-18T12:42:35;30.60;1.00
15003;DHT22;7597;53.590;10.020;2022-08-18T12:45:02;30.00;1.00
15003;DHT22;7597;53.590;10.020;2022-08-18T12:47:29;30.00;1.00
15003;DHT22;7597;53.590;10.020;2022-08-18T12:49:56;29.90;1.00
15003;DHT22;7597;53.590;10.020;2022-08-18T12:52:22;30.30;1.00
15003;DHT22;7597;53.590;10.020;2022-08-18T12:54:49;30.60;1.00
15003;DHT22;7597;53.590;10.020;2022-08-18T12:57:20;30.90;1.00
15003;DHT22;7597;53.590;10.020;2022-08-18T12:59:45;30.90;1.00
15003;DHT22;7597;53.590;10.020;2022-08-18T13:02:11;30.30;1.00
15003;DHT22;7597;53.590;10.020;2022-08-18T13:04:38;30.10;1.00
15003;DHT22;7597;53.590;10.020;2022-08-18T13:07:05;30.20;1.00
15003;DHT22;7597;53.590;10.020;2022-08-18T13:09:33;29.80;1.00
15003;DHT22;7597;53.590;10.020;2022-08-18T13:11:59;29.80;1.00
15003;DHT22;7597;53.590;10.020;2022-08-18T13:14:26;29.80;1.00
15003;DHT22;7597;53.590;10.020;2022-08-18T13:16:52;29.70;1.00
15003;DHT22;7597;53.590;10.020;2022-08-18T13:19:19;29.70;1.00
15003;DHT22;7597;53.590;10.020;2022-08-18T13:21:46;29.40;1.00
15003;DHT22;7597;53.590;10.020;2022-08-18T13:24:13;29.40;1.00
15003;DHT22;7597;53.590;10.020;2022-08-18T13:26:42;29.70;1.00
15003;DHT22;7597;53.590;10.020;2022-08-18T13:29:09;29.70;1.00
15003;DHT22;7597;53.590;10.020;2022-08-18T13:31:36;29.50;1.00
15003;DHT22;7597;53.590;10.020;2022-08-18T13:34:03;29.10;1.00
15003;DHT22;7597;53.590;10.020;2022-08-18T13:36:30;28.60;1.00
15003;DHT22;7597;53.590;10.020;2022-08-18T13:38:57;29.10;1.00
15003;DHT22;7597;53.590;10.020;2022-08-18T13:41:23;29.70;1.00
15003;DHT22;7597;53.590;10.020;2022-08-18T13:43:50;30.50;1.00
15003;DHT22;7597;53.590;10.020;2022-08-18T13:46:17;31.10;1.00
15003;DHT22;7597;53.590;10.020;2022-08-18T13:48:43;31.20;1.00
15003;DHT22;7597;53.590;10.020;2022-08-18T13:51:12;31.30;1.00
15003;DHT22;7597;53.590;10.020;2022-08-18T13:53:38;31.40;1.00
15003;DHT22;7597;53.590;10.020;2022-08-18T13:56:04;31.40;1.00
15003;DHT22;7597;53.590;10.020;2022-08-18T13:58:31;31.40;1.00
15003;DHT22;7597;53.590;10.020;2022-08-18T14:01:00;31.20;1.00
15003;DHT22;7597;53.590;10.020;2022-08-18T14:03:25;31.00;1.00
15003;DHT22;7597;53.590;10.020;2022-08-18T14:05:52;30.60;1.00
15003;DHT22;7597;53.590;10.020;2022-08-18T14:08:19;30.30;1.00
15003;DHT22;7597;53.590;10.020;2022-08-18T14:10:48;30.10;1.00
15003;DHT22;7597;53.590;10.020;2022-08-18T14:13:14;30.00;1.00
15003;DHT22;7597;53.590;10.020;2022-08-18T14:15:40;30.30;1.00
15003;DHT22;7597;53.590;10.020;2022-08-18T14:18:07;30.60;1.00
15003;DHT22;7597;53.590;10.020;2022-08-18T14:20:34;30.30;1.00
15003;DHT22;7597;53.590;10.020;2022-08-18T14:23:06;30.40;1.00
15003;DHT22;7597;53.590;10.020;2022-08-18T14:25:38;30.40;1.00
15003;DHT22;7597;53.590;10.020;2022-08-18T14:28:11;30.00;1.00
15003;DHT22;7597;53.590;10.020;2022-08-18T14:30:38;29.90;1.00
15003;DHT22;7597;53.590;10.020;2022-08-18T14:33:06;30.00;1.00
15003;DHT22;7597;53.590;10.020;2022-08-18T14:35:33;29.80;1.00
15003;DHT22;7597;53.590;10.020;2022-08-18T14:37:59;29.60;1.00
15003;DHT22;7597;53.590;10.020;2022-08-18T14:40:26;29.70;1.00
15003;DHT22;7597;53.590;10.020;2022-08-18T14:42:52;29.60;1.00
15003;DHT22;7597;53.590;10.020;2022-08-18T14:45:19;29.70;1.00
15003;DHT22;7597;53.590;10.020;2022-08-18T14:47:45;29.70;1.00
15003;DHT22;7597;53.590;10.020;2022-08-18T14:50:12;29.70;1.00
15003;DHT22;7597;53.590;10.020;2022-08-18T14:52:40;29.20;1.00
15003;DHT22;7597;53.590;10.020;2022-08-18T14:55:07;29.20;1.00
15003;DHT22;7597;53.590;10.020;2022-08-18T14:57:34;29.00;1.00
15003;DHT22;7597;53.590;10.020;2022-08-18T15:00:01;29.20;1.00
15003;DHT22;7597;53.590;10.020;2022-08-18T15:02:27;29.30;1.00
15003;DHT22;7597;53.590;10.020;2022-08-18T15:04:54;29.70;1.00
15003;DHT22;7597;53.590;10.020;2022-08-18T15:07:21;29.80;1.00
15003;DHT22;7597;53.590;10.020;2022-08-18T15:09:47;29.80;1.00
15003;DHT22;7597;53.590;10.020;2022-08-18T15:12:14;30.00;1.00
15003;DHT22;7597;53.590;10.020;2022-08-18T15:14:41;30.00;1.00
15003;DHT22;7597;53.590;10.020;2022-08-18T15:17:07;30.00;1.00
15003;DHT22;7597;53.590;10.020;2022-08-18T15:19:35;30.40;1.00
15003;DHT22;7597;53.590;10.020;2022-08-18T15:22:02;30.60;1.00
15003;DHT22;7597;53.590;10.020;2022-08-18T15:24:38;30.60;1.00
15003;DHT22;7597;53.590;10.020;2022-08-18T15:27:06;30.60;1.00
15003;DHT22;7597;53.590;10.020;2022-08-18T15:29:33;30.30;1.00
15003;DHT22;7597;53.590;10.020;2022-08-18T15:32:00;30.30;1.00
15003;DHT22;7597;53.590;10.020;2022-08-18T15:34:26;30.40;1.00
15003;DHT22;7597;53.590;10.020;2022-08-18T15:36:53;30.70;1.00
15003;DHT22;7597;53.590;10.020;2022-08-18T15:39:20;30.60;1.00
15003;DHT22;7597;53.590;10.020;2022-08-18T15:41:46;30.50;1.00
15003;DHT22;7597;53.590;10.020;2022-08-18T15:44:14;30.30;1.00
15003;DHT22;7597;53.590;10.020;2022-08-18T15:46:40;30.20;1.00
15003;DHT22;7597;53.590;10.020;2022-08-18T15:49:06;30.00;1.00
15003;DHT22;7597;53.590;10.020;2022-08-18T15:51:34;30.30;1.00
15003;DHT22;7597;53.590;10.020;2022-08-18T15:54:02;30.30;1.00
15003;DHT22;7597;53.590;10.020;2022-08-18T15:56:28;30.00;1.00
15003;DHT22;7597;53.590;10.020;2022-08-18T15:58:55;30.00;1.00
15003;DHT22;7597;53.590;10.020;2022-08-18T16:01:23;29.70;1.00
15003;DHT22;7597;53.590;10.020;2022-08-18T16:03:50;29.70;1.00
15003;DHT22;7597;53.590;10.020;2022-08-18T16:06:17;29.70;1.00
15003;DHT22;7597;53.590;10.020;2022-08-18T16:08:43;29.80;1.00
15003;DHT22;7597;53.590;10.020;2022-08-18T16:11:10;29.50;1.00
15003;DHT22;7597;53.590;10.020;2022-08-18T16:13:36;29.50;1.00
15003;DHT22;7597;53.590;10.020;2022-08-18T16:16:10;29.60;1.00
15003;DHT22;7597;53.590;10.020;2022-08-18T16:18:38;29.30;1.00
15003;DHT22;7597;53.590;10.020;2022-08-18T16:21:05;29.10;1.00
15003;DHT22;7597;53.590;10.020;2022-08-18T16:23:31;28.80;1.00
15003;DHT22;7597;53.590;10.020;2022-08-18T16:26:00;28.30;1.00
15003;DHT22;7597;53.590;10.020;2022-08-18T16:28:27;27.80;1.00
15003;DHT22;7597;53.590;10.020;2022-08-18T16:30:53;27.50;1.00